Terminal Aerodrome Forecast
Issued by NWS

Home | Current Version | Previous Version | Text Only | Print | Product List | Glossary On
Versions: 1 2 3 4 5 6 7 8 9 10 11 12 13 14 15 16 17 18 19
000
FTUS44 KTSA 051500 AAB
TAFXNA
TAF AMD
KXNA 051500Z 0515/0612 VRB03KT 5SM BR FEW003 BKN200
      TEMPO 0515/0516 1SM BR BKN005
     FM051700 16008KT P6SM BKN120
     FM052200 14008KT P6SM SCT030 BKN100
     FM060000 VRB03KT 4SM -SHRA BR OVC025
     FM060800 35005KT 2SM BR OVC007=

USA.gov is the U.S. government's official web portal to all federal, state and local government web resources and services.